createdAt,value
2022-12-09T00:01:41.025Z,9.37
2022-12-09T00:04:12.961Z,9.00
2022-12-09T00:06:39.806Z,10.17
2022-12-09T00:09:06.559Z,8.77
2022-12-09T00:11:33.361Z,9.57
2022-12-09T00:14:00.182Z,10.20
2022-12-09T00:16:40.136Z,8.73
2022-12-09T00:19:07.936Z,9.37
2022-12-09T00:21:34.758Z,8.83
2022-12-09T00:24:05.911Z,9.03
2022-12-09T00:26:38.040Z,9.13
2022-12-09T00:29:04.885Z,8.80
2022-12-09T00:31:33.423Z,9.23
2022-12-09T00:34:02.016Z,8.67
2022-12-09T00:36:35.246Z,8.63
2022-12-09T00:39:02.031Z,8.93
2022-12-09T00:41:29.421Z,9.43
2022-12-09T00:43:56.622Z,9.20
2022-12-09T00:46:23.363Z,8.73
2022-12-09T00:48:53.873Z,8.23
2022-12-09T00:51:24.404Z,8.50
2022-12-09T00:53:59.018Z,8.33
2022-12-09T00:56:26.627Z,9.00
2022-12-09T00:58:53.318Z,8.27
2022-12-09T01:01:22.660Z,8.10
2022-12-09T01:03:50.646Z,8.27
2022-12-09T01:06:19.303Z,7.87
2022-12-09T01:08:48.915Z,8.47
2022-12-09T01:11:17.873Z,8.30
2022-12-09T01:13:44.686Z,8.33
2022-12-09T01:16:15.359Z,9.27
2022-12-09T01:18:45.035Z,8.87
2022-12-09T01:21:14.170Z,8.90
2022-12-09T01:23:40.795Z,8.97
2022-12-09T01:26:07.973Z,9.13
2022-12-09T01:28:38.849Z,8.33
2022-12-09T01:31:07.000Z,8.77
2022-12-09T01:33:37.057Z,8.83
2022-12-09T01:36:16.939Z,8.20
2022-12-09T01:38:43.911Z,7.90
2022-12-09T01:41:11.105Z,8.33
2022-12-09T01:43:38.943Z,8.23
2022-12-09T01:46:06.988Z,8.63
2022-12-09T01:48:42.605Z,8.37
2022-12-09T01:51:17.007Z,7.70
2022-12-09T01:53:47.239Z,8.43
2022-12-09T01:56:27.217Z,8.27
2022-12-09T01:58:54.281Z,8.33
2022-12-09T02:01:21.444Z,8.33
2022-12-09T02:03:48.580Z,8.13
2022-12-09T02:06:17.376Z,8.43
2022-12-09T02:08:54.384Z,7.53
2022-12-09T02:11:45.498Z,8.73
2022-12-09T02:14:33.057Z,8.80
2022-12-09T02:17:26.270Z,8.00
2022-12-09T02:20:19.421Z,7.63
2022-12-09T02:22:48.189Z,7.60
2022-12-09T02:25:24.388Z,7.67
2022-12-09T02:28:12.345Z,8.60
2022-12-09T02:31:07.941Z,7.87
2022-12-09T02:33:54.894Z,7.73
2022-12-09T02:36:26.742Z,8.07
2022-12-09T02:38:57.244Z,7.90
2022-12-09T02:41:39.863Z,7.93
2022-12-09T02:44:14.251Z,8.33
2022-12-09T02:46:47.661Z,8.10
2022-12-09T02:49:17.086Z,8.10
2022-12-09T02:51:45.903Z,8.20
2022-12-09T02:54:17.179Z,7.80
2022-12-09T02:56:50.863Z,7.63
2022-12-09T02:59:17.656Z,7.80
2022-12-09T03:02:03.398Z,7.47
2022-12-09T03:04:38.425Z,8.67
2022-12-09T03:07:23.298Z,7.83
2022-12-09T03:09:54.669Z,7.33
2022-12-09T03:12:21.327Z,7.50
2022-12-09T03:14:51.368Z,7.83
2022-12-09T03:17:23.676Z,7.43
2022-12-09T03:19:55.431Z,7.27
2022-12-09T03:22:24.433Z,7.63
2022-12-09T03:24:59.955Z,7.50
2022-12-09T03:27:29.140Z,7.20
2022-12-09T03:29:56.147Z,8.00
2022-12-09T03:32:26.296Z,7.00
2022-12-09T03:35:00.561Z,7.60
2022-12-09T03:37:40.940Z,7.03
2022-12-09T03:40:14.122Z,7.50
2022-12-09T03:45:41.179Z,7.50
2022-12-09T03:48:14.163Z,7.03
2022-12-09T03:50:54.718Z,7.07
2022-12-09T03:53:43.709Z,8.07
2022-12-09T03:56:34.797Z,6.73
2022-12-09T03:59:01.890Z,7.60
2022-12-09T04:01:28.897Z,7.40
2022-12-09T04:03:56.696Z,7.13
2022-12-09T04:06:24.100Z,7.43
2022-12-09T04:08:59.420Z,7.40
2022-12-09T04:11:28.928Z,7.00
2022-12-09T04:13:58.577Z,7.80
2022-12-09T04:16:28.682Z,7.60
2022-12-09T04:18:55.896Z,7.50
2022-12-09T04:21:22.740Z,6.80
2022-12-09T04:23:55.119Z,7.17
2022-12-09T04:26:22.593Z,7.50
2022-12-09T04:28:50.063Z,6.60
2022-12-09T04:31:17.540Z,7.13
2022-12-09T04:33:45.042Z,6.60
2022-12-09T04:36:13.996Z,6.73
2022-12-09T04:38:41.413Z,6.83
2022-12-09T04:41:11.096Z,7.30
2022-12-09T04:43:41.056Z,6.90
2022-12-09T04:46:11.163Z,6.07
2022-12-09T04:48:41.234Z,6.93
2022-12-09T04:51:26.171Z,6.57
2022-12-09T04:53:52.753Z,7.00
2022-12-09T04:56:23.661Z,6.97
2022-12-09T04:58:50.833Z,7.23
2022-12-09T05:01:24.914Z,7.17
2022-12-09T05:03:59.881Z,7.40
2022-12-09T05:06:27.529Z,7.37
2022-12-09T05:08:57.242Z,7.17
2022-12-09T05:11:31.513Z,6.50
2022-12-09T05:13:59.132Z,5.93
2022-12-09T05:16:28.804Z,7.03
2022-12-09T05:18:56.197Z,7.10
2022-12-09T05:21:23.140Z,6.67
2022-12-09T05:23:50.447Z,7.07
2022-12-09T05:26:22.793Z,7.27
2022-12-09T05:28:50.480Z,7.10
2022-12-09T05:31:20.006Z,6.23
2022-12-09T05:33:51.127Z,6.57
2022-12-09T05:36:23.512Z,7.20
2022-12-09T05:38:52.557Z,7.03
2022-12-09T05:41:19.785Z,6.90
2022-12-09T05:43:50.093Z,6.30
2022-12-09T05:46:16.910Z,7.00
2022-12-09T05:48:44.345Z,6.47
2022-12-09T05:51:37.899Z,7.47
2022-12-09T05:54:07.392Z,7.03
2022-12-09T05:56:44.402Z,7.03
2022-12-09T05:59:23.243Z,6.63
2022-12-09T06:02:00.639Z,7.07
2022-12-09T06:04:30.711Z,6.60
2022-12-09T06:06:57.974Z,5.93
2022-12-09T06:09:25.122Z,6.53
2022-12-09T06:11:52.466Z,6.33
2022-12-09T06:14:19.720Z,6.70
2022-12-09T06:16:46.744Z,6.50
2022-12-09T06:19:22.630Z,6.33
2022-12-09T06:21:55.440Z,7.10
2022-12-09T06:24:22.397Z,6.53
2022-12-09T06:26:49.386Z,6.93
2022-12-09T06:29:16.380Z,6.60
2022-12-09T06:31:43.093Z,6.33
2022-12-09T06:34:10.472Z,6.17
2022-12-09T06:36:37.408Z,6.13
2022-12-09T06:39:10.039Z,7.03
2022-12-09T06:41:38.116Z,10.63
2022-12-09T06:44:05.546Z,22.43
2022-12-09T06:46:32.711Z,17.10
2022-12-09T06:48:59.566Z,19.20
2022-12-09T06:51:26.716Z,20.20
2022-12-09T06:53:53.583Z,19.83
2022-12-09T06:56:20.973Z,18.00
2022-12-09T06:58:48.323Z,19.10
2022-12-09T07:01:20.186Z,17.47
2022-12-09T07:03:48.590Z,18.37
2022-12-09T07:06:29.935Z,18.03
2022-12-09T07:08:58.315Z,17.33
2022-12-09T07:11:25.626Z,16.43
2022-12-09T07:13:52.386Z,16.27
2022-12-09T07:16:19.379Z,15.30
2022-12-09T07:18:46.223Z,15.40
2022-12-09T07:21:14.534Z,15.67
2022-12-09T07:23:41.457Z,14.57
2022-12-09T07:26:08.760Z,14.67
2022-12-09T07:28:36.384Z,17.33
2022-12-09T07:31:03.271Z,19.53
2022-12-09T07:33:30.486Z,15.27
2022-12-09T07:35:58.245Z,17.33
2022-12-09T07:38:25.717Z,16.83
2022-12-09T07:40:52.870Z,14.77
2022-12-09T07:43:19.831Z,18.73
2022-12-09T07:45:46.640Z,13.67
2022-12-09T07:48:13.651Z,13.90
2022-12-09T07:50:40.738Z,14.03
2022-12-09T07:53:07.428Z,15.63
2022-12-09T07:55:34.152Z,12.90
2022-12-09T07:58:00.983Z,11.93
2022-12-09T08:00:28.051Z,13.00
2022-12-09T08:02:54.836Z,14.20
2022-12-09T08:05:22.203Z,14.73
2022-12-09T08:07:49.480Z,11.77
2022-12-09T08:10:16.484Z,11.47
2022-12-09T08:12:43.241Z,11.47
2022-12-09T08:15:10.620Z,11.73
2022-12-09T08:17:37.578Z,11.03
2022-12-09T08:20:05.288Z,11.07
2022-12-09T08:22:32.497Z,10.77
2022-12-09T08:24:59.582Z,11.90
2022-12-09T08:27:26.757Z,11.17
2022-12-09T08:29:53.621Z,11.60
2022-12-09T08:32:20.377Z,11.83
2022-12-09T08:34:47.596Z,10.20
2022-12-09T08:37:15.167Z,11.77
2022-12-09T08:39:41.865Z,12.90
2022-12-09T08:42:08.604Z,10.07
2022-12-09T08:44:35.568Z,11.03
2022-12-09T08:47:02.811Z,9.90
2022-12-09T08:49:29.874Z,9.63
2022-12-09T08:51:56.828Z,9.90
2022-12-09T08:54:25.716Z,9.27
2022-12-09T08:56:55.251Z,10.20
2022-12-09T08:59:22.927Z,10.47
2022-12-09T09:01:50.359Z,9.63
2022-12-09T09:04:26.217Z,9.13
2022-12-09T09:06:53.525Z,8.17
2022-12-09T09:09:21.180Z,9.20
2022-12-09T09:11:48.407Z,8.50
2022-12-09T09:14:15.790Z,8.67
2022-12-09T09:16:43.618Z,8.63
2022-12-09T09:19:16.555Z,8.13
2022-12-09T09:21:43.281Z,9.87
2022-12-09T09:24:11.417Z,8.20
2022-12-09T09:26:40.146Z,8.27
2022-12-09T09:29:06.759Z,10.10
2022-12-09T09:31:34.348Z,8.70
2022-12-09T09:34:01.292Z,8.23
2022-12-09T09:36:28.393Z,9.07
2022-12-09T09:38:55.968Z,8.63
2022-12-09T09:41:54.717Z,8.00
2022-12-09T09:44:31.878Z,7.87
2022-12-09T09:46:59.362Z,8.43
2022-12-09T09:49:36.613Z,6.97
2022-12-09T09:52:08.861Z,7.30
2022-12-09T09:54:35.783Z,9.07
2022-12-09T09:57:18.775Z,7.80
2022-12-09T09:59:50.232Z,7.27
2022-12-09T10:02:32.618Z,7.23
2022-12-09T10:05:15.509Z,7.57
2022-12-09T10:07:51.670Z,6.90
2022-12-09T10:10:28.710Z,7.40
2022-12-09T10:13:18.805Z,6.33
2022-12-09T10:16:41.642Z,6.77
2022-12-09T10:19:19.759Z,7.13
2022-12-09T10:21:47.466Z,7.27
2022-12-09T10:24:19.148Z,7.87
2022-12-09T10:26:52.644Z,6.40
2022-12-09T10:29:47.177Z,8.23
2022-12-09T10:32:18.259Z,6.90
2022-12-09T10:34:47.686Z,7.00
2022-12-09T10:37:35.369Z,6.70
2022-12-09T10:40:10.570Z,6.43
2022-12-09T10:43:06.495Z,6.20
2022-12-09T10:46:00.104Z,6.83
2022-12-09T10:48:33.633Z,6.13
2022-12-09T10:51:03.974Z,5.60
2022-12-09T10:53:31.175Z,6.57
2022-12-09T10:55:58.871Z,6.73
2022-12-09T10:58:27.617Z,6.10
2022-12-09T11:01:08.861Z,5.40
2022-12-09T11:03:39.714Z,6.40
2022-12-09T11:06:25.999Z,6.63
2022-12-09T11:08:58.000Z,5.47
2022-12-09T11:11:51.236Z,5.93
2022-12-09T11:14:27.301Z,6.37
2022-12-09T11:16:58.290Z,6.47
2022-12-09T11:19:43.584Z,5.47
2022-12-09T11:22:36.459Z,5.53
2022-12-09T11:25:13.026Z,6.23
2022-12-09T11:27:41.305Z,5.60
2022-12-09T11:30:14.476Z,6.07
2022-12-09T11:33:02.312Z,6.87
2022-12-09T11:35:36.725Z,5.63
2022-12-09T11:38:23.602Z,5.60
2022-12-09T11:41:02.567Z,5.53
2022-12-09T11:43:35.494Z,4.97
2022-12-09T11:46:06.751Z,5.57
2022-12-09T11:48:37.480Z,5.43
2022-12-09T11:51:20.781Z,5.77
2022-12-09T11:53:47.410Z,6.17
2022-12-09T11:56:17.036Z,5.67
2022-12-09T11:58:53.961Z,5.57
2022-12-09T12:01:24.778Z,5.77
2022-12-09T12:04:00.638Z,5.97
2022-12-09T12:06:35.158Z,9.37
2022-12-09T12:09:10.334Z,5.83
2022-12-09T12:11:40.905Z,4.80
2022-12-09T12:14:16.853Z,6.63
2022-12-09T12:16:48.967Z,6.93
2022-12-09T12:19:28.215Z,5.60
2022-12-09T12:22:22.654Z,5.63
2022-12-09T12:25:20.841Z,6.03
2022-12-09T12:28:15.399Z,7.93
2022-12-09T12:31:06.776Z,5.40
2022-12-09T12:34:22.872Z,5.27
2022-12-09T12:37:06.389Z,5.70
2022-12-09T12:39:42.785Z,6.10
2022-12-09T12:42:29.181Z,5.33
2022-12-09T12:45:54.947Z,5.00
2022-12-09T12:48:30.833Z,9.30
2022-12-09T12:51:09.317Z,8.43
2022-12-09T12:53:50.772Z,8.13
2022-12-09T12:56:23.535Z,10.27
2022-12-09T12:59:15.276Z,11.00
2022-12-09T13:01:51.156Z,7.90
2022-12-09T13:04:20.805Z,21.97
2022-12-09T13:07:01.990Z,13.93
2022-12-09T13:10:07.740Z,7.10
2022-12-09T13:12:53.964Z,8.17
2022-12-09T13:15:33.243Z,8.57
2022-12-09T13:18:04.404Z,8.27
2022-12-09T13:20:38.041Z,9.00
2022-12-09T13:23:39.943Z,7.90
2022-12-09T13:26:26.228Z,7.63
2022-12-09T13:29:02.671Z,8.90
2022-12-09T13:31:32.000Z,7.23
2022-12-09T13:33:58.442Z,7.63
2022-12-09T13:36:45.713Z,7.80
2022-12-09T13:39:13.276Z,7.17
2022-12-09T13:42:00.453Z,6.20
2022-12-09T13:44:31.247Z,7.10
2022-12-09T13:47:26.783Z,6.40
2022-12-09T13:50:32.179Z,6.30
2022-12-09T13:53:00.794Z,6.27
2022-12-09T13:55:34.453Z,5.73
2022-12-09T13:58:30.837Z,7.47
2022-12-09T14:01:14.807Z,6.47
2022-12-09T14:04:12.881Z,5.63
2022-12-09T14:06:46.518Z,5.33
2022-12-09T14:09:34.836Z,9.83
2022-12-09T14:12:06.426Z,6.70
2022-12-09T14:14:32.879Z,8.27
2022-12-09T14:17:00.804Z,6.33
2022-12-09T14:19:27.304Z,7.27
2022-12-09T14:22:17.048Z,4.93
2022-12-09T14:24:59.371Z,4.80
2022-12-09T14:27:29.917Z,5.50
2022-12-09T14:30:00.762Z,5.63
2022-12-09T14:32:48.987Z,5.33
2022-12-09T14:35:15.471Z,5.23
2022-12-09T14:37:57.009Z,10.00
2022-12-09T14:41:02.371Z,7.00
2022-12-09T14:43:50.330Z,4.63
2022-12-09T14:46:34.104Z,4.73
2022-12-09T14:49:12.363Z,4.60
2022-12-09T14:51:59.026Z,4.40
2022-12-09T14:54:46.148Z,5.03
2022-12-09T14:57:43.047Z,7.00
2022-12-09T15:00:29.813Z,4.77
2022-12-09T15:06:06.576Z,7.83
2022-12-09T15:08:37.794Z,7.60
2022-12-09T15:11:24.179Z,4.93
2022-12-09T15:13:52.243Z,8.33
2022-12-09T15:16:21.363Z,4.10
2022-12-09T15:18:48.037Z,5.87
2022-12-09T15:21:27.559Z,4.77
2022-12-09T15:23:54.079Z,7.60
2022-12-09T15:26:23.595Z,4.90
2022-12-09T15:28:51.432Z,6.33
2022-12-09T15:31:20.189Z,8.90
2022-12-09T15:33:51.461Z,8.50
2022-12-09T15:36:35.570Z,5.40
2022-12-09T15:39:04.944Z,4.70
2022-12-09T15:42:07.455Z,7.70
2022-12-09T15:44:36.797Z,7.07
2022-12-09T15:47:09.784Z,10.30
2022-12-09T15:49:40.595Z,7.10
2022-12-09T15:52:07.137Z,6.80
2022-12-09T15:54:38.160Z,10.80
2022-12-09T15:57:06.020Z,8.10
2022-12-09T15:59:40.908Z,7.13
2022-12-09T16:02:21.071Z,5.60
2022-12-09T16:04:48.327Z,6.97
2022-12-09T16:07:16.128Z,6.03
2022-12-09T16:09:43.784Z,12.13
2022-12-09T16:12:26.800Z,11.10
2022-12-09T16:14:53.319Z,9.53
2022-12-09T16:17:25.159Z,8.60
2022-12-09T16:19:51.799Z,6.90
2022-12-09T16:22:28.953Z,6.37
2022-12-09T16:25:19.613Z,7.20
2022-12-09T16:27:48.667Z,7.07
2022-12-09T16:30:21.038Z,10.60
2022-12-09T16:32:57.470Z,6.47
2022-12-09T16:35:25.669Z,6.87
2022-12-09T16:37:58.393Z,10.80
2022-12-09T16:40:24.783Z,8.77
2022-12-09T16:43:16.162Z,11.03
2022-12-09T16:45:53.385Z,5.80
2022-12-09T16:48:20.654Z,11.63
2022-12-09T16:50:58.423Z,9.20
2022-12-09T16:53:37.524Z,6.30
2022-12-09T16:56:04.303Z,7.77
2022-12-09T16:58:32.795Z,7.23
2022-12-09T17:00:59.905Z,14.73
2022-12-09T17:03:32.386Z,8.23
2022-12-09T17:05:59.095Z,7.03
2022-12-09T17:08:25.805Z,9.27
2022-12-09T17:10:52.396Z,4.83
2022-12-09T17:13:18.960Z,6.57
2022-12-09T17:15:45.535Z,8.37
2022-12-09T17:18:12.034Z,4.97
2022-12-09T17:20:38.661Z,8.40
2022-12-09T17:23:05.258Z,5.47
2022-12-09T17:25:33.297Z,7.10
2022-12-09T17:28:05.894Z,6.50
2022-12-09T17:30:36.187Z,5.77
2022-12-09T17:33:02.716Z,4.23
2022-12-09T17:35:29.480Z,3.70
2022-12-09T17:37:55.960Z,4.53
2022-12-09T17:40:22.605Z,5.67
2022-12-09T17:42:49.119Z,6.30
2022-12-09T17:45:15.691Z,5.93
2022-12-09T17:47:42.225Z,4.37
2022-12-09T17:50:09.385Z,4.77
2022-12-09T17:52:36.223Z,6.13
2022-12-09T17:55:02.773Z,7.30
2022-12-09T17:57:29.357Z,6.33
2022-12-09T17:59:55.937Z,5.20
2022-12-09T18:02:22.611Z,6.40
2022-12-09T18:04:49.184Z,7.70
2022-12-09T18:07:15.728Z,6.77
2022-12-09T18:09:42.266Z,7.87
2022-12-09T18:12:08.777Z,7.50
2022-12-09T18:14:35.324Z,7.03
2022-12-09T18:17:01.900Z,6.33
2022-12-09T18:19:29.972Z,5.63
2022-12-09T18:21:56.714Z,8.83
2022-12-09T18:24:23.458Z,7.90
2022-12-09T18:26:50.274Z,7.67
2022-12-09T18:29:16.878Z,14.93
2022-12-09T18:31:45.727Z,5.50
2022-12-09T18:34:12.358Z,5.97
2022-12-09T18:36:38.934Z,10.03
2022-12-09T18:39:05.559Z,10.80
2022-12-09T18:41:32.133Z,7.53
2022-12-09T18:44:00.735Z,9.47
2022-12-09T18:46:36.396Z,7.20
2022-12-09T18:49:14.307Z,8.67
2022-12-09T18:51:43.368Z,6.47
2022-12-09T18:54:11.206Z,8.60
2022-12-09T18:56:37.790Z,8.30
2022-12-09T18:59:07.547Z,8.00
2022-12-09T19:01:39.445Z,10.73
2022-12-09T19:04:07.093Z,15.50
2022-12-09T19:06:35.221Z,22.73
2022-12-09T19:09:05.590Z,13.10
2022-12-09T19:11:33.651Z,18.00
2022-12-09T19:14:00.321Z,19.63
2022-12-09T19:16:27.236Z,13.73
2022-12-09T19:18:53.864Z,15.10
2022-12-09T19:21:21.349Z,16.40
2022-12-09T19:23:47.921Z,12.33
2022-12-09T19:26:21.936Z,13.13
2022-12-09T19:28:49.612Z,14.03
2022-12-09T19:31:20.892Z,11.83
2022-12-09T19:33:47.538Z,10.63
2022-12-09T19:36:14.092Z,15.63
2022-12-09T19:38:40.780Z,10.10
2022-12-09T19:41:07.475Z,11.43
2022-12-09T19:43:34.096Z,9.97
2022-12-09T19:46:08.128Z,14.40
2022-12-09T19:48:39.256Z,8.77
2022-12-09T19:51:07.465Z,11.67
2022-12-09T19:53:34.061Z,8.67
2022-12-09T19:56:04.428Z,12.17
2022-12-09T19:58:31.239Z,9.07
2022-12-09T20:00:58.383Z,10.53
2022-12-09T20:03:25.396Z,10.80
2022-12-09T20:05:54.495Z,9.53
2022-12-09T20:08:21.190Z,15.67
2022-12-09T20:10:47.818Z,9.87
2022-12-09T20:13:15.972Z,9.90
2022-12-09T20:15:42.543Z,14.50
2022-12-09T20:18:09.584Z,9.30
2022-12-09T20:20:36.688Z,8.43
2022-12-09T20:23:03.474Z,10.00
2022-12-09T20:25:30.010Z,7.67
2022-12-09T20:27:56.553Z,14.73
2022-12-09T20:30:23.066Z,7.90
2022-12-09T20:32:49.593Z,6.47
2022-12-09T20:35:16.230Z,10.30
2022-12-09T20:37:43.909Z,8.03
2022-12-09T20:40:10.991Z,7.70
2022-12-09T20:42:40.017Z,10.87
2022-12-09T20:45:14.952Z,7.63
2022-12-09T20:47:42.900Z,8.20
2022-12-09T20:50:38.980Z,9.10
2022-12-09T20:53:05.691Z,10.87
2022-12-09T20:55:56.779Z,6.43
2022-12-09T20:58:23.757Z,6.83
2022-12-09T21:00:50.821Z,14.47
2022-12-09T21:03:17.840Z,8.80
2022-12-09T21:05:47.725Z,9.33
2022-12-09T21:08:15.850Z,10.60
2022-12-09T21:10:45.382Z,5.50
2022-12-09T21:13:12.108Z,10.93
2022-12-09T21:15:39.013Z,7.87
2022-12-09T21:18:05.797Z,7.73
2022-12-09T21:20:35.130Z,7.90
2022-12-09T21:23:32.963Z,9.03
2022-12-09T21:25:52.205Z,9.53
2022-12-09T21:28:24.273Z,9.83
2022-12-09T21:30:50.805Z,5.53
2022-12-09T21:33:19.714Z,8.10
2022-12-09T21:35:52.192Z,5.97
2022-12-09T21:38:18.873Z,8.77
2022-12-09T21:40:47.476Z,6.20
2022-12-09T21:43:14.007Z,7.67
2022-12-09T21:45:40.578Z,8.50
2022-12-09T21:48:07.117Z,4.67
2022-12-09T21:50:34.313Z,8.70
2022-12-09T21:53:00.954Z,7.43
2022-12-09T21:55:42.850Z,8.17
2022-12-09T21:58:09.399Z,4.87
2022-12-09T22:00:36.082Z,4.30
2022-12-09T22:03:02.670Z,8.03
2022-12-09T22:05:29.219Z,6.63
2022-12-09T22:07:55.814Z,5.97
2022-12-09T22:10:25.197Z,5.83
2022-12-09T22:12:51.748Z,7.60
2022-12-09T22:15:18.339Z,6.57
2022-12-09T22:17:46.743Z,5.70
2022-12-09T22:20:54.263Z,6.83
2022-12-09T22:22:59.849Z,7.03
2022-12-09T22:25:28.306Z,9.63
2022-12-09T22:27:57.570Z,6.00
2022-12-09T22:30:24.172Z,8.23
2022-12-09T22:32:51.152Z,6.27
2022-12-09T22:35:17.861Z,5.97
2022-12-09T22:37:44.752Z,6.43
2022-12-09T22:40:11.765Z,5.70
2022-12-09T22:42:38.595Z,6.47
2022-12-09T22:45:06.126Z,5.13
2022-12-09T22:47:32.729Z,6.77
2022-12-09T22:49:59.338Z,5.10
2022-12-09T22:52:25.946Z,5.50
2022-12-09T22:54:52.776Z,6.20
2022-12-09T22:57:19.431Z,5.37
2022-12-09T22:59:45.944Z,6.80
2022-12-09T23:02:12.793Z,5.10
2022-12-09T23:04:39.400Z,5.67
2022-12-09T23:07:06.844Z,6.17
2022-12-09T23:09:33.410Z,5.40
2022-12-09T23:12:00.229Z,4.87
2022-12-09T23:14:26.860Z,7.37
2022-12-09T23:16:53.579Z,6.13
2022-12-09T23:19:20.221Z,7.97
2022-12-09T23:21:46.858Z,4.87
2022-12-09T23:24:24.761Z,5.60
2022-12-09T23:26:51.794Z,4.97
2022-12-09T23:29:21.417Z,5.30
2022-12-09T23:31:48.528Z,5.27
2022-12-09T23:34:15.298Z,8.77
2022-12-09T23:36:42.621Z,5.60
2022-12-09T23:39:14.163Z,5.33
2022-12-09T23:41:41.313Z,5.77
2022-12-09T23:44:12.390Z,5.33
2022-12-09T23:46:39.224Z,5.23
2022-12-09T23:49:07.768Z,4.83
2022-12-09T23:51:36.596Z,6.20
2022-12-09T23:54:04.263Z,4.77
2022-12-09T23:56:32.274Z,4.60
2022-12-09T23:59:00.844Z,6.43
